sensor_id;sensor_type;location;lat;lon;timestamp;pressure;altitude;pressure_sealevel;temperature;humidity
16451;BME280;12243;42.708;23.310;2023-02-24T00:01:13;95052.09;;;7.89;100.00
16451;BME280;12243;42.708;23.310;2023-02-24T00:03:50;95049.84;;;7.84;100.00
16451;BME280;12243;42.708;23.310;2023-02-24T00:06:17;95052.53;;;7.83;100.00
16451;BME280;12243;42.708;23.310;2023-02-24T00:08:46;95049.69;;;7.75;100.00
16451;BME280;12243;42.708;23.310;2023-02-24T00:11:15;95040.53;;;7.82;100.00
16451;BME280;12243;42.708;23.310;2023-02-24T00:13:43;95049.22;;;7.81;100.00
16451;BME280;12243;42.708;23.310;2023-02-24T00:16:12;95048.13;;;7.72;100.00
16451;BME280;12243;42.708;23.310;2023-02-24T00:18:39;95049.50;;;7.65;100.00
16451;BME280;12243;42.708;23.310;2023-02-24T00:21:09;95052.59;;;7.70;100.00
16451;BME280;12243;42.708;23.310;2023-02-24T00:23:40;95037.28;;;7.67;100.00
16451;BME280;12243;42.708;23.310;2023-02-24T00:26:10;95049.78;;;7.73;100.00
16451;BME280;12243;42.708;23.310;2023-02-24T00:28:38;95047.25;;;7.60;100.00
16451;BME280;12243;42.708;23.310;2023-02-24T00:31:06;95045.75;;;7.69;100.00
16451;BME280;12243;42.708;23.310;2023-02-24T00:33:34;95037.97;;;7.69;100.00
16451;BME280;12243;42.708;23.310;2023-02-24T00:36:10;95041.59;;;7.67;100.00
16451;BME280;12243;42.708;23.310;2023-02-24T00:38:38;95032.19;;;7.66;100.00
16451;BME280;12243;42.708;23.310;2023-02-24T00:41:12;95034.78;;;7.66;100.00
16451;BME280;12243;42.708;23.310;2023-02-24T00:43:41;95029.41;;;7.56;100.00
16451;BME280;12243;42.708;23.310;2023-02-24T00:46:12;95016.78;;;7.51;100.00
16451;BME280;12243;42.708;23.310;2023-02-24T00:48:43;95025.34;;;7.40;100.00
16451;BME280;12243;42.708;23.310;2023-02-24T00:51:12;95028.47;;;7.33;100.00
16451;BME280;12243;42.708;23.310;2023-02-24T00:53:41;95021.63;;;7.32;100.00
16451;BME280;12243;42.708;23.310;2023-02-24T00:56:11;95017.50;;;7.29;100.00
16451;BME280;12243;42.708;23.310;2023-02-24T00:58:38;95017.59;;;7.28;100.00
16451;BME280;12243;42.708;23.310;2023-02-24T01:01:11;95012.41;;;7.28;100.00
16451;BME280;12243;42.708;23.310;2023-02-24T01:03:38;95024.31;;;7.30;100.00
16451;BME280;12243;42.708;23.310;2023-02-24T01:06:06;95015.81;;;7.28;100.00
16451;BME280;12243;42.708;23.310;2023-02-24T01:08:33;95016.06;;;7.25;100.00
16451;BME280;12243;42.708;23.310;2023-02-24T01:11:08;95005.59;;;7.27;100.00
16451;BME280;12243;42.708;23.310;2023-02-24T01:13:53;95009.75;;;7.16;100.00
16451;BME280;12243;42.708;23.310;2023-02-24T01:16:20;95014.19;;;7.14;100.00
16451;BME280;12243;42.708;23.310;2023-02-24T01:18:47;95001.38;;;7.13;100.00
16451;BME280;12243;42.708;23.310;2023-02-24T01:21:15;95006.06;;;7.08;100.00
16451;BME280;12243;42.708;23.310;2023-02-24T01:23:46;94999.53;;;7.02;100.00
16451;BME280;12243;42.708;23.310;2023-02-24T01:26:13;94984.22;;;6.99;100.00
16451;BME280;12243;42.708;23.310;2023-02-24T01:28:40;94985.16;;;6.98;100.00
16451;BME280;12243;42.708;23.310;2023-02-24T01:31:08;94980.88;;;6.97;100.00
16451;BME280;12243;42.708;23.310;2023-02-24T01:33:35;94986.59;;;6.89;100.00
16451;BME280;12243;42.708;23.310;2023-02-24T01:36:08;94989.09;;;6.91;100.00
16451;BME280;12243;42.708;23.310;2023-02-24T01:38:35;94992.72;;;7.01;100.00
16451;BME280;12243;42.708;23.310;2023-02-24T01:41:04;94986.69;;;7.01;100.00
16451;BME280;12243;42.708;23.310;2023-02-24T01:43:32;94988.25;;;7.03;100.00
16451;BME280;12243;42.708;23.310;2023-02-24T01:45:59;94986.06;;;6.97;100.00
16451;BME280;12243;42.708;23.310;2023-02-24T01:48:27;94990.34;;;6.98;100.00
16451;BME280;12243;42.708;23.310;2023-02-24T01:50:55;94991.50;;;6.94;100.00
16451;BME280;12243;42.708;23.310;2023-02-24T01:53:23;94983.78;;;7.05;100.00
16451;BME280;12243;42.708;23.310;2023-02-24T01:55:50;94979.84;;;7.00;100.00
16451;BME280;12243;42.708;23.310;2023-02-24T01:58:21;94980.88;;;6.97;100.00
16451;BME280;12243;42.708;23.310;2023-02-24T02:00:49;94977.81;;;6.92;100.00
16451;BME280;12243;42.708;23.310;2023-02-24T02:03:21;94985.91;;;6.87;100.00
16451;BME280;12243;42.708;23.310;2023-02-24T02:05:52;94990.47;;;6.84;100.00
16451;BME280;12243;42.708;23.310;2023-02-24T02:08:21;94987.34;;;6.79;100.00
16451;BME280;12243;42.708;23.310;2023-02-24T02:10:50;94986.41;;;6.80;100.00
16451;BME280;12243;42.708;23.310;2023-02-24T02:13:24;94985.50;;;6.81;100.00
16451;BME280;12243;42.708;23.310;2023-02-24T02:15:59;94981.69;;;6.74;100.00
16451;BME280;12243;42.708;23.310;2023-02-24T02:18:35;94985.09;;;6.61;100.00
16451;BME280;12243;42.708;23.310;2023-02-24T02:21:41;94980.34;;;6.55;100.00
16451;BME280;12243;42.708;23.310;2023-02-24T02:24:26;94980.34;;;6.55;100.00
16451;BME280;12243;42.708;23.310;2023-02-24T02:33:25;94981.19;;;6.43;100.00
16451;BME280;12243;42.708;23.310;2023-02-24T02:36:08;94974.97;;;6.33;100.00
16451;BME280;12243;42.708;23.310;2023-02-24T02:38:43;94979.53;;;6.29;100.00
16451;BME280;12243;42.708;23.310;2023-02-24T02:41:21;94985.53;;;6.30;100.00
16451;BME280;12243;42.708;23.310;2023-02-24T02:43:53;94982.13;;;6.29;100.00
16451;BME280;12243;42.708;23.310;2023-02-24T02:46:28;94979.31;;;6.32;100.00
16451;BME280;12243;42.708;23.310;2023-02-24T02:49:05;94988.03;;;6.31;100.00
16451;BME280;12243;42.708;23.310;2023-02-24T02:51:41;94988.53;;;6.36;100.00
16451;BME280;12243;42.708;23.310;2023-02-24T02:54:15;94979.31;;;6.32;100.00
16451;BME280;12243;42.708;23.310;2023-02-24T02:56:48;94980.16;;;6.33;100.00
16451;BME280;12243;42.708;23.310;2023-02-24T02:59:20;94965.44;;;6.20;100.00
16451;BME280;12243;42.708;23.310;2023-02-24T03:01:51;94968.25;;;6.17;100.00
16451;BME280;12243;42.708;23.310;2023-02-24T03:04:22;94970.84;;;6.17;100.00
16451;BME280;12243;42.708;23.310;2023-02-24T03:06:54;94976.00;;;6.17;100.00
16451;BME280;12243;42.708;23.310;2023-02-24T03:09:25;94979.50;;;6.16;100.00
16451;BME280;12243;42.708;23.310;2023-02-24T03:11:56;94976.22;;;6.14;100.00
16451;BME280;12243;42.708;23.310;2023-02-24T03:14:28;94976.44;;;6.24;100.00
16451;BME280;12243;42.708;23.310;2023-02-24T03:16:58;94973.00;;;6.24;100.00
16451;BME280;12243;42.708;23.310;2023-02-24T03:19:31;94977.06;;;6.28;100.00
16451;BME280;12243;42.708;23.310;2023-02-24T03:22:09;94977.06;;;6.28;100.00
16451;BME280;12243;42.708;23.310;2023-02-24T03:24:38;94985.31;;;6.33;100.00
16451;BME280;12243;42.708;23.310;2023-02-24T03:27:10;94982.94;;;6.30;100.00
16451;BME280;12243;42.708;23.310;2023-02-24T03:29:42;94978.28;;;6.35;100.00
16451;BME280;12243;42.708;23.310;2023-02-24T03:32:16;94982.22;;;6.40;100.00
16451;BME280;12243;42.708;23.310;2023-02-24T03:34:49;94977.66;;;6.44;100.00
16451;BME280;12243;42.708;23.310;2023-02-24T03:37:21;94969.00;;;6.45;100.00
16451;BME280;12243;42.708;23.310;2023-02-24T03:39:52;94965.97;;;6.51;100.00
16451;BME280;12243;42.708;23.310;2023-02-24T03:42:25;94972.47;;;6.44;100.00
16451;BME280;12243;42.708;23.310;2023-02-24T03:44:55;94972.06;;;6.50;100.00
16451;BME280;12243;42.708;23.310;2023-02-24T03:47:24;94968.75;;;6.48;100.00
16451;BME280;12243;42.708;23.310;2023-02-24T03:49:52;94973.91;;;6.48;100.00
16451;BME280;12243;42.708;23.310;2023-02-24T03:52:33;94974.88;;;6.60;100.00
16451;BME280;12243;42.708;23.310;2023-02-24T03:55:20;94974.94;;;6.71;100.00
16451;BME280;12243;42.708;23.310;2023-02-24T03:58:05;94977.03;;;6.53;100.00
16451;BME280;12243;42.708;23.310;2023-02-24T04:00:46;94975.59;;;6.49;100.00
16451;BME280;12243;42.708;23.310;2023-02-24T04:03:25;94980.56;;;6.52;100.00
16451;BME280;12243;42.708;23.310;2023-02-24T04:06:08;94973.91;;;6.48;100.00
16451;BME280;12243;42.708;23.310;2023-02-24T04:08:46;94975.47;;;6.51;100.00
16451;BME280;12243;42.708;23.310;2023-02-24T04:11:19;94973.50;;;6.54;100.00
16451;BME280;12243;42.708;23.310;2023-02-24T04:13:54;94971.47;;;6.59;100.00
16451;BME280;12243;42.708;23.310;2023-02-24T04:16:28;94971.66;;;6.56;100.00
16451;BME280;12243;42.708;23.310;2023-02-24T04:19:06;94965.75;;;6.54;100.00
16451;BME280;12243;42.708;23.310;2023-02-24T04:21:40;94965.97;;;6.51;100.00
16451;BME280;12243;42.708;23.310;2023-02-24T04:24:18;94963.50;;;6.50;100.00
16451;BME280;12243;42.708;23.310;2023-02-24T04:26:47;94964.59;;;6.58;100.00
16451;BME280;12243;42.708;23.310;2023-02-24T04:29:18;94952.31;;;6.49;100.00
16451;BME280;12243;42.708;23.310;2023-02-24T04:31:52;94955.72;;;6.50;100.00
16451;BME280;12243;42.708;23.310;2023-02-24T04:34:20;94955.13;;;6.46;100.00
16451;BME280;12243;42.708;23.310;2023-02-24T04:36:48;94953.47;;;6.45;100.00
16451;BME280;12243;42.708;23.310;2023-02-24T04:39:19;94950.56;;;6.50;100.00
16451;BME280;12243;42.708;23.310;2023-02-24T04:41:51;94948.06;;;6.48;100.00
16451;BME280;12243;42.708;23.310;2023-02-24T04:44:19;94951.16;;;6.53;100.00
16451;BME280;12243;42.708;23.310;2023-02-24T04:46:47;94950.97;;;6.56;100.00
16451;BME280;12243;42.708;23.310;2023-02-24T04:49:15;94944.66;;;6.48;100.00
16451;BME280;12243;42.708;23.310;2023-02-24T04:51:44;94948.06;;;6.48;100.00
16451;BME280;12243;42.708;23.310;2023-02-24T04:54:13;94950.63;;;6.48;100.00
16451;BME280;12243;42.708;23.310;2023-02-24T04:56:43;94953.97;;;6.63;100.00
16451;BME280;12243;42.708;23.310;2023-02-24T04:59:12;94942.13;;;6.72;100.00
16451;BME280;12243;42.708;23.310;2023-02-24T05:01:40;94951.78;;;6.70;100.00
16451;BME280;12243;42.708;23.310;2023-02-24T05:04:08;94947.44;;;6.70;99.68
16451;BME280;12243;42.708;23.310;2023-02-24T05:06:37;94950.50;;;6.75;99.76
16451;BME280;12243;42.708;23.310;2023-02-24T05:09:08;94944.50;;;6.75;99.33
16451;BME280;12243;42.708;23.310;2023-02-24T05:11:40;94939.34;;;6.75;99.53
16451;BME280;12243;42.708;23.310;2023-02-24T05:14:09;94944.91;;;6.81;98.84
16451;BME280;12243;42.708;23.310;2023-02-24T05:16:40;94947.59;;;6.80;98.63
16451;BME280;12243;42.708;23.310;2023-02-24T05:19:08;94954.22;;;6.84;98.88
16451;BME280;12243;42.708;23.310;2023-02-24T05:21:53;94952.56;;;6.83;98.77
16451;BME280;12243;42.708;23.310;2023-02-24T05:24:22;94955.34;;;6.80;99.75
16451;BME280;12243;42.708;23.310;2023-02-24T05:26:50;94957.03;;;6.81;100.00
16451;BME280;12243;42.708;23.310;2023-02-24T05:29:24;94958.88;;;6.79;100.00
16451;BME280;12243;42.708;23.310;2023-02-24T05:31:52;94961.69;;;6.76;100.00
16451;BME280;12243;42.708;23.310;2023-02-24T05:34:24;94955.59;;;6.77;100.00
16451;BME280;12243;42.708;23.310;2023-02-24T05:36:51;94956.09;;;6.82;100.00
16451;BME280;12243;42.708;23.310;2023-02-24T05:39:18;94953.78;;;6.90;100.00
16451;BME280;12243;42.708;23.310;2023-02-24T05:41:47;94963.13;;;6.80;100.00
16451;BME280;12243;42.708;23.310;2023-02-24T05:44:16;94955.06;;;6.72;100.00
16451;BME280;12243;42.708;23.310;2023-02-24T05:46:49;94958.88;;;6.79;100.00
16451;BME280;12243;42.708;23.310;2023-02-24T05:49:19;94962.13;;;6.70;100.00
16451;BME280;12243;42.708;23.310;2023-02-24T05:51:48;94948.66;;;6.64;100.00
16451;BME280;12243;42.708;23.310;2023-02-24T05:54:21;94957.38;;;6.63;100.00
16451;BME280;12243;42.708;23.310;2023-02-24T05:56:48;94953.63;;;6.55;100.00
16451;BME280;12243;42.708;23.310;2023-02-24T05:59:15;94963.56;;;6.48;100.00
16451;BME280;12243;42.708;23.310;2023-02-24T06:01:47;94960.28;;;6.46;100.00
16451;BME280;12243;42.708;23.310;2023-02-24T06:04:18;94964.00;;;6.55;100.00
16451;BME280;12243;42.708;23.310;2023-02-24T06:07:05;94977.03;;;6.53;100.00
16451;BME280;12243;42.708;23.310;2023-02-24T06:09:32;94979.38;;;6.69;100.00
16451;BME280;12243;42.708;23.310;2023-02-24T06:12:00;94984.91;;;6.64;100.00
16451;BME280;12243;42.708;23.310;2023-02-24T06:14:28;94980.94;;;6.72;100.00
16451;BME280;12243;42.708;23.310;2023-02-24T06:16:56;94984.78;;;6.79;100.00
16451;BME280;12243;42.708;23.310;2023-02-24T06:19:25;94984.97;;;6.76;100.00
16451;BME280;12243;42.708;23.310;2023-02-24T06:21:52;94978.56;;;6.81;100.00
16451;BME280;12243;42.708;23.310;2023-02-24T06:24:19;94984.28;;;6.74;100.00
16451;BME280;12243;42.708;23.310;2023-02-24T06:26:46;94986.66;;;6.77;100.00
16451;BME280;12243;42.708;23.310;2023-02-24T06:29:16;94986.84;;;6.74;100.00
16451;BME280;12243;42.708;23.310;2023-02-24T06:31:43;94982.91;;;6.81;100.00
16451;BME280;12243;42.708;23.310;2023-02-24T06:34:14;94988.19;;;6.79;100.00
16451;BME280;12243;42.708;23.310;2023-02-24T06:36:42;94990.47;;;6.84;100.00
16451;BME280;12243;42.708;23.310;2023-02-24T06:39:09;94984.06;;;6.77;100.00
16451;BME280;12243;42.708;23.310;2023-02-24T06:41:38;94983.75;;;6.81;100.00
16451;BME280;12243;42.708;23.310;2023-02-24T06:44:07;94976.38;;;6.75;100.00
16451;BME280;12243;42.708;23.310;2023-02-24T06:46:35;94979.78;;;6.76;100.00
16451;BME280;12243;42.708;23.310;2023-02-24T06:49:02;94982.19;;;6.79;100.00
16451;BME280;12243;42.708;23.310;2023-02-24T06:51:31;94966.44;;;6.82;100.00
16451;BME280;12243;42.708;23.310;2023-02-24T06:53:58;94976.59;;;6.85;100.00
16451;BME280;12243;42.708;23.310;2023-02-24T06:56:26;94966.22;;;6.98;100.00
16451;BME280;12243;42.708;23.310;2023-02-24T06:58:54;94972.63;;;6.92;100.00
16451;BME280;12243;42.708;23.310;2023-02-24T07:01:23;94970.25;;;6.89;100.00
16451;BME280;12243;42.708;23.310;2023-02-24T07:03:50;94970.88;;;6.92;100.00
16451;BME280;12243;42.708;23.310;2023-02-24T07:06:46;94969.94;;;6.93;100.00
16451;BME280;12243;42.708;23.310;2023-02-24T07:09:18;94965.16;;;7.00;100.00
16451;BME280;12243;42.708;23.310;2023-02-24T07:11:47;94970.41;;;7.11;100.00
16451;BME280;12243;42.708;23.310;2023-02-24T07:14:18;94966.97;;;7.11;100.00
16451;BME280;12243;42.708;23.310;2023-02-24T07:16:46;94959.38;;;7.21;100.00
16451;BME280;12243;42.708;23.310;2023-02-24T07:19:20;94951.97;;;7.40;100.00
16451;BME280;12243;42.708;23.310;2023-02-24T07:21:49;94955.25;;;7.42;100.00
16451;BME280;12243;42.708;23.310;2023-02-24T07:24:19;94960.22;;;7.45;100.00
16451;BME280;12243;42.708;23.310;2023-02-24T07:26:57;94958.34;;;7.47;99.26
16451;BME280;12243;42.708;23.310;2023-02-24T07:29:26;94953.19;;;7.47;98.94
16451;BME280;12243;42.708;23.310;2023-02-24T07:31:53;94944.72;;;7.56;98.82
16451;BME280;12243;42.708;23.310;2023-02-24T07:34:22;94948.50;;;7.63;98.78
16451;BME280;12243;42.708;23.310;2023-02-24T07:36:51;94954.94;;;7.71;97.77
16451;BME280;12243;42.708;23.310;2023-02-24T07:39:20;94957.41;;;7.72;96.08
16451;BME280;12243;42.708;23.310;2023-02-24T07:41:48;94952.56;;;7.68;96.26
16451;BME280;12243;42.708;23.310;2023-02-24T07:44:17;94956.56;;;7.72;96.58
16451;BME280;12243;42.708;23.310;2023-02-24T07:46:44;94959.66;;;7.77;97.26
16451;BME280;12243;42.708;23.310;2023-02-24T07:49:15;94961.06;;;7.81;96.51
16451;BME280;12243;42.708;23.310;2023-02-24T07:51:44;94962.53;;;7.85;94.87
16451;BME280;12243;42.708;23.310;2023-02-24T07:54:13;94950.03;;;7.90;94.50
16451;BME280;12243;42.708;23.310;2023-02-24T07:56:40;94951.22;;;7.97;93.43
16451;BME280;12243;42.708;23.310;2023-02-24T07:59:13;94934.03;;;7.96;94.48
16451;BME280;12243;42.708;23.310;2023-02-24T08:01:43;94936.13;;;7.91;93.43
16451;BME280;12243;42.708;23.310;2023-02-24T08:04:16;94927.19;;;7.95;94.56
16451;BME280;12243;42.708;23.310;2023-02-24T08:06:44;94931.66;;;7.93;94.81
16451;BME280;12243;42.708;23.310;2023-02-24T08:09:18;94931.06;;;8.01;94.17
16451;BME280;12243;42.708;23.310;2023-02-24T08:11:47;94922.97;;;8.05;94.12
16451;BME280;12243;42.708;23.310;2023-02-24T08:14:17;94926.03;;;8.10;93.42
16451;BME280;12243;42.708;23.310;2023-02-24T08:16:46;94924.84;;;8.15;93.35
16451;BME280;12243;42.708;23.310;2023-02-24T08:19:16;94925.09;;;8.11;93.48
16451;BME280;12243;42.708;23.310;2023-02-24T08:21:46;94919.00;;;8.24;94.02
16451;BME280;12243;42.708;23.310;2023-02-24T08:24:18;94933.31;;;8.52;92.06
16451;BME280;12243;42.708;23.310;2023-02-24T08:26:45;94927.28;;;8.51;90.39
16451;BME280;12243;42.708;23.310;2023-02-24T08:29:18;94934.13;;;8.41;89.99
16451;BME280;12243;42.708;23.310;2023-02-24T08:31:45;94923.53;;;8.44;90.14
16451;BME280;12243;42.708;23.310;2023-02-24T08:34:14;94936.13;;;8.49;90.88
16451;BME280;12243;42.708;23.310;2023-02-24T08:36:41;94936.03;;;8.62;89.76
16451;BME280;12243;42.708;23.310;2023-02-24T08:39:13;94930.25;;;8.69;90.31
16451;BME280;12243;42.708;23.310;2023-02-24T08:41:42;94924.91;;;8.93;88.72
16451;BME280;12243;42.708;23.310;2023-02-24T08:44:16;94925.84;;;9.03;88.46
16451;BME280;12243;42.708;23.310;2023-02-24T08:46:45;94918.44;;;9.31;86.56
16451;BME280;12243;42.708;23.310;2023-02-24T08:49:14;94918.84;;;9.47;84.29
16451;BME280;12243;42.708;23.310;2023-02-24T08:51:42;94916.34;;;9.57;85.06
16451;BME280;12243;42.708;23.310;2023-02-24T08:54:11;94924.91;;;9.90;84.27
16451;BME280;12243;42.708;23.310;2023-02-24T08:56:42;94925.38;;;10.16;81.26
16451;BME280;12243;42.708;23.310;2023-02-24T08:59:15;94920.13;;;10.27;79.77
16451;BME280;12243;42.708;23.310;2023-02-24T09:02:05;94911.81;;;10.33;78.86
16451;BME280;12243;42.708;23.310;2023-02-24T09:04:51;94912.94;;;10.40;78.77
16451;BME280;12243;42.708;23.310;2023-02-24T09:07:20;94922.78;;;10.37;78.45
16451;BME280;12243;42.708;23.310;2023-02-24T09:09:48;94923.91;;;10.23;79.90
16451;BME280;12243;42.708;23.310;2023-02-24T09:12:16;94916.50;;;10.39;79.38
16451;BME280;12243;42.708;23.310;2023-02-24T09:14:51;94910.59;;;10.68;77.63
16451;BME280;12243;42.708;23.310;2023-02-24T09:17:21;94910.13;;;10.93;76.06
16451;BME280;12243;42.708;23.310;2023-02-24T09:20:09;94916.97;;;10.94;75.11
16451;BME280;12243;42.708;23.310;2023-02-24T09:22:55;94900.28;;;11.07;75.33
16451;BME280;12243;42.708;23.310;2023-02-24T09:25:29;94904.16;;;11.22;75.20
16451;BME280;12243;42.708;23.310;2023-02-24T09:28:12;94909.66;;;11.38;75.10
16451;BME280;12243;42.708;23.310;2023-02-24T09:30:44;94908.59;;;11.51;73.10
16451;BME280;12243;42.708;23.310;2023-02-24T09:33:20;94903.63;;;11.38;73.56
16451;BME280;12243;42.708;23.310;2023-02-24T09:35:51;94898.97;;;11.61;73.17
16451;BME280;12243;42.708;23.310;2023-02-24T09:38:19;94893.63;;;11.91;71.73
16451;BME280;12243;42.708;23.310;2023-02-24T09:41:19;94896.50;;;12.18;70.96
16451;BME280;12243;42.708;23.310;2023-02-24T09:43:59;94887.88;;;12.45;70.41
16451;BME280;12243;42.708;23.310;2023-02-24T09:46:32;94890.84;;;12.69;68.73
16451;BME280;12243;42.708;23.310;2023-02-24T09:49:04;94886.66;;;12.76;68.06
16451;BME280;12243;42.708;23.310;2023-02-24T09:51:33;94876.25;;;12.67;67.89
16451;BME280;12243;42.708;23.310;2023-02-24T09:54:12;94875.59;;;12.55;68.68
16451;BME280;12243;42.708;23.310;2023-02-24T09:56:49;94880.97;;;12.53;67.71
16451;BME280;12243;42.708;23.310;2023-02-24T09:59:41;94874.38;;;12.59;68.94
16451;BME280;12243;42.708;23.310;2023-02-24T10:02:36;94870.09;;;12.85;67.35
16451;BME280;12243;42.708;23.310;2023-02-24T10:05:17;94863.16;;;12.76;67.01
16451;BME280;12243;42.708;23.310;2023-02-24T10:07:49;94862.19;;;12.77;67.42
16451;BME280;12243;42.708;23.310;2023-02-24T10:10:19;94853.94;;;12.72;67.67
16451;BME280;12243;42.708;23.310;2023-02-24T10:12:57;94844.66;;;12.60;67.17
16451;BME280;12243;42.708;23.310;2023-02-24T10:15:31;94839.22;;;12.44;68.23
16451;BME280;12243;42.708;23.310;2023-02-24T10:18:24;94825.50;;;12.42;68.49
16451;BME280;12243;42.708;23.310;2023-02-24T10:20:56;94838.16;;;12.36;69.39
16451;BME280;12243;42.708;23.310;2023-02-24T10:23:34;94818.19;;;12.45;68.62
16451;BME280;12243;42.708;23.310;2023-02-24T10:26:12;94820.06;;;12.25;69.02
16451;BME280;12243;42.708;23.310;2023-02-24T10:28:59;94817.91;;;12.11;69.35
16451;BME280;12243;42.708;23.310;2023-02-24T10:31:39;94832.91;;;11.99;70.22
16451;BME280;12243;42.708;23.310;2023-02-24T10:34:12;94832.31;;;12.15;69.44
16451;BME280;12243;42.708;23.310;2023-02-24T10:36:44;94812.28;;;12.06;70.21
16451;BME280;12243;42.708;23.310;2023-02-24T10:39:17;94805.41;;;12.05;70.42
16451;BME280;12243;42.708;23.310;2023-02-24T10:41:51;94798.38;;;12.15;70.08
16451;BME280;12243;42.708;23.310;2023-02-24T10:44:22;94796.56;;;12.25;69.03
16451;BME280;12243;42.708;23.310;2023-02-24T10:47:00;94794.25;;;12.12;69.94
16451;BME280;12243;42.708;23.310;2023-02-24T10:49:41;94785.41;;;12.23;70.36
16451;BME280;12243;42.708;23.310;2023-02-24T10:52:23;94786.72;;;12.37;69.85
16451;BME280;12243;42.708;23.310;2023-02-24T10:55:23;94777.06;;;12.47;69.10
16451;BME280;12243;42.708;23.310;2023-02-24T10:58:04;94770.00;;;12.57;68.09
16451;BME280;12243;42.708;23.310;2023-02-24T11:00:39;94769.47;;;12.54;68.30
16451;BME280;12243;42.708;23.310;2023-02-24T11:03:38;94764.75;;;12.39;69.17
16451;BME280;12243;42.708;23.310;2023-02-24T11:06:20;94764.66;;;12.31;70.04
16451;BME280;12243;42.708;23.310;2023-02-24T11:09:15;94768.03;;;12.42;69.15
16451;BME280;12243;42.708;23.310;2023-02-24T11:11:58;94754.56;;;12.64;68.76
16451;BME280;12243;42.708;23.310;2023-02-24T11:14:49;94749.00;;;12.95;68.40
16451;BME280;12243;42.708;23.310;2023-02-24T11:17:35;94741.63;;;13.26;66.50
16451;BME280;12243;42.708;23.310;2023-02-24T11:20:06;94730.88;;;13.29;66.33
16451;BME280;12243;42.708;23.310;2023-02-24T11:22:43;94736.31;;;13.36;66.72
16451;BME280;12243;42.708;23.310;2023-02-24T11:25:17;94731.47;;;13.49;66.12
16451;BME280;12243;42.708;23.310;2023-02-24T11:27:45;94733.41;;;13.65;65.85
16451;BME280;12243;42.708;23.310;2023-02-24T11:30:15;94720.41;;;13.81;64.60
16451;BME280;12243;42.708;23.310;2023-02-24T11:32:56;94720.16;;;13.92;64.38
16451;BME280;12243;42.708;23.310;2023-02-24T11:35:30;94708.97;;;14.16;63.61
16451;BME280;12243;42.708;23.310;2023-02-24T11:38:04;94704.75;;;14.32;63.25
16451;BME280;12243;42.708;23.310;2023-02-24T11:40:38;94706.38;;;14.33;62.69
16451;BME280;12243;42.708;23.310;2023-02-24T11:43:12;94689.56;;;14.43;62.35
16451;BME280;12243;42.708;23.310;2023-02-24T11:45:45;94683.81;;;14.40;62.48
16451;BME280;12243;42.708;23.310;2023-02-24T11:48:17;94677.94;;;14.46;62.37
16451;BME280;12243;42.708;23.310;2023-02-24T11:50:50;94675.31;;;14.38;62.13
16451;BME280;12243;42.708;23.310;2023-02-24T11:53:26;94664.78;;;14.21;62.69
16451;BME280;12243;42.708;23.310;2023-02-24T11:55:57;94662.47;;;14.18;62.78
16451;BME280;12243;42.708;23.310;2023-02-24T11:58:31;94645.00;;;14.35;62.91
16451;BME280;12243;42.708;23.310;2023-02-24T12:01:05;94647.38;;;14.63;61.89
16451;BME280;12243;42.708;23.310;2023-02-24T12:03:39;94645.44;;;14.65;61.77
16451;BME280;12243;42.708;23.310;2023-02-24T12:06:17;94647.56;;;14.69;61.40
16451;BME280;12243;42.708;23.310;2023-02-24T12:08:49;94651.81;;;14.70;61.39
16451;BME280;12243;42.708;23.310;2023-02-24T12:11:27;94651.84;;;14.87;61.20
16451;BME280;12243;42.708;23.310;2023-02-24T12:14:06;94652.97;;;15.09;59.98
16451;BME280;12243;42.708;23.310;2023-02-24T12:16:41;94652.50;;;14.89;60.37
16451;BME280;12243;42.708;23.310;2023-02-24T12:19:16;94640.38;;;14.71;60.79
16451;BME280;12243;42.708;23.310;2023-02-24T12:21:48;94630.47;;;14.49;61.39
16451;BME280;12243;42.708;23.310;2023-02-24T12:24:17;94618.31;;;14.40;61.92
16451;BME280;12243;42.708;23.310;2023-02-24T12:26:52;94612.88;;;14.25;63.24
16451;BME280;12243;42.708;23.310;2023-02-24T12:29:49;94626.59;;;14.02;64.09
16451;BME280;12243;42.708;23.310;2023-02-24T12:32:25;94628.72;;;13.99;65.78
16451;BME280;12243;42.708;23.310;2023-02-24T12:35:03;94614.69;;;14.16;65.62
16451;BME280;12243;42.708;23.310;2023-02-24T12:37:48;94611.41;;;14.22;65.23
16451;BME280;12243;42.708;23.310;2023-02-24T12:40:28;94608.78;;;14.22;64.87
16451;BME280;12243;42.708;23.310;2023-02-24T12:43:05;94616.94;;;14.11;65.48
16451;BME280;12243;42.708;23.310;2023-02-24T12:45:44;94624.72;;;13.87;66.31
16451;BME280;12243;42.708;23.310;2023-02-24T12:48:27;94616.06;;;13.52;69.76
16451;BME280;12243;42.708;23.310;2023-02-24T12:51:02;94616.00;;;13.36;72.54
16451;BME280;12243;42.708;23.310;2023-02-24T12:53:39;94622.25;;;12.99;76.64
16451;BME280;12243;42.708;23.310;2023-02-24T12:56:14;94629.84;;;12.66;80.80
16451;BME280;12243;42.708;23.310;2023-02-24T12:58:46;94621.78;;;12.59;83.58
16451;BME280;12243;42.708;23.310;2023-02-24T13:01:21;94618.16;;;12.78;86.15
16451;BME280;12243;42.708;23.310;2023-02-24T13:04:04;94618.00;;;12.98;85.72
16451;BME280;12243;42.708;23.310;2023-02-24T13:06:46;94595.00;;;13.01;84.53
16451;BME280;12243;42.708;23.310;2023-02-24T13:09:21;94588.69;;;13.12;82.98
16451;BME280;12243;42.708;23.310;2023-02-24T13:11:54;94578.44;;;13.19;82.64
16451;BME280;12243;42.708;23.310;2023-02-24T13:14:26;94566.53;;;13.24;83.09
16451;BME280;12243;42.708;23.310;2023-02-24T13:17:20;94583.97;;;13.42;81.38
16451;BME280;12243;42.708;23.310;2023-02-24T13:19:48;94583.66;;;13.45;80.15
16451;BME280;12243;42.708;23.310;2023-02-24T13:22:25;94571.59;;;13.52;79.44
16451;BME280;12243;42.708;23.310;2023-02-24T13:24:59;94580.06;;;13.46;79.67
16451;BME280;12243;42.708;23.310;2023-02-24T13:27:31;94574.19;;;13.44;80.19